QFA7121 PHDH-PHKO
Flight info
| Callsign | QFA7121 |
|---|---|
| Flight time | 1h 15m |
| Altitude | 7000 |
| Route | PALAY V2 LNY VECKI9 |
| Aircraft | C208/L-SDF/C |
Departure
| Time | 2026-04-26 05:54 |
|---|---|
| Airport | Kawaihapai Airfield (PHDH) |
Arrival
| Time | 2026-04-26 07:09 |
|---|---|
| Airport | Ellison Onizuka Kona International Airport at Keāhole (PHKO) |
| Time | Latitude | Longitude | Altitude | Speed | Heading |
|---|---|---|---|---|---|
| 2026-04-26 05:30 | 21.57906 | -158.19731 | 20 ft | 0 kts | 2° |
| 2026-04-26 05:50 | 21.57914 | -158.19731 | 21 ft | 4 kts | 1° |
| 2026-04-26 05:51 | 21.57947 | -158.19678 | 21 ft | 18 kts | 91° |
| 2026-04-26 05:51 | 21.57942 | -158.19489 | 19 ft | 31 kts | 92° |
| 2026-04-26 05:51 | 21.57937 | -158.19237 | 19 ft | 34 kts | 90° |
| 2026-04-26 05:51 | 21.57935 | -158.18987 | 17 ft | 33 kts | 91° |
| 2026-04-26 05:52 | 21.57932 | -158.18743 | 17 ft | 32 kts | 90° |
| 2026-04-26 05:52 | 21.57925 | -158.18550 | 15 ft | 12 kts | 90° |
| 2026-04-26 05:52 | 21.57935 | -158.18543 | 15 ft | 5 kts | 277° |
| 2026-04-26 05:52 | 21.57936 | -158.18564 | 15 ft | 0 kts | 271° |
| 2026-04-26 05:53 | 21.57937 | -158.18667 | 17 ft | 37 kts | 271° |
| 2026-04-26 05:53 | 21.57941 | -158.19102 | 18 ft | 77 kts | 269° |
| 2026-04-26 05:54 | 21.57929 | -158.19756 | 125 ft | 91 kts | 262° |
| 2026-04-26 05:54 | 21.57871 | -158.20485 | 195 ft | 110 kts | 271° |
| 2026-04-26 05:54 | 21.57956 | -158.21296 | 454 ft | 108 kts | 282° |
| 2026-04-26 05:54 | 21.58097 | -158.22106 | 644 ft | 111 kts | 274° |
| 2026-04-26 05:55 | 21.58221 | -158.22958 | 665 ft | 127 kts | 290° |
| 2026-04-26 05:55 | 21.58417 | -158.23760 | 1147 ft | 94 kts | 274° |
| 2026-04-26 05:55 | 21.58429 | -158.24434 | 1358 ft | 92 kts | 267° |
| 2026-04-26 05:55 | 21.58383 | -158.25119 | 1524 ft | 92 kts | 263° |
| 2026-04-26 05:56 | 21.58291 | -158.25798 | 1709 ft | 92 kts | 258° |
| 2026-04-26 05:56 | 21.58154 | -158.26465 | 1938 ft | 90 kts | 255° |
| 2026-04-26 05:56 | 21.58023 | -158.27124 | 2128 ft | 91 kts | 257° |
| 2026-04-26 05:56 | 21.57893 | -158.27794 | 2327 ft | 92 kts | 257° |
| 2026-04-26 05:57 | 21.57755 | -158.28501 | 2471 ft | 101 kts | 257° |
| 2026-04-26 05:57 | 21.57607 | -158.29263 | 2627 ft | 108 kts | 257° |
| 2026-04-26 05:57 | 21.57449 | -158.30077 | 2787 ft | 115 kts | 257° |
| 2026-04-26 05:57 | 21.57282 | -158.30934 | 2942 ft | 120 kts | 258° |
| 2026-04-26 05:58 | 21.57109 | -158.31825 | 3094 ft | 124 kts | 258° |
| 2026-04-26 05:58 | 21.56701 | -158.32626 | 3236 ft | 128 kts | 212° |
| 2026-04-26 05:58 | 21.55835 | -158.32889 | 3390 ft | 131 kts | 192° |
| 2026-04-26 05:58 | 21.54932 | -158.33106 | 3532 ft | 135 kts | 193° |
| 2026-04-26 05:59 | 21.54010 | -158.33327 | 3671 ft | 137 kts | 193° |
| 2026-04-26 05:59 | 21.53070 | -158.33551 | 3807 ft | 139 kts | 193° |
| 2026-04-26 05:59 | 21.52116 | -158.33777 | 3940 ft | 141 kts | 193° |
| 2026-04-26 05:59 | 21.51150 | -158.34007 | 4072 ft | 143 kts | 193° |
| 2026-04-26 06:00 | 21.50176 | -158.34237 | 4201 ft | 144 kts | 193° |
| 2026-04-26 06:00 | 21.49185 | -158.34289 | 4327 ft | 145 kts | 162° |
| 2026-04-26 06:00 | 21.48261 | -158.33848 | 4461 ft | 146 kts | 155° |
| 2026-04-26 06:00 | 21.47334 | -158.33397 | 4590 ft | 147 kts | 156° |
| 2026-04-26 06:01 | 21.46403 | -158.32944 | 4717 ft | 147 kts | 156° |
| 2026-04-26 06:01 | 21.45469 | -158.32487 | 4844 ft | 148 kts | 156° |
| 2026-04-26 06:01 | 21.44534 | -158.32031 | 4970 ft | 148 kts | 156° |
| 2026-04-26 06:01 | 21.43595 | -158.31573 | 5095 ft | 148 kts | 159° |
| 2026-04-26 06:02 | 21.42652 | -158.31131 | 5211 ft | 148 kts | 154° |
| 2026-04-26 06:02 | 21.42188 | -158.30229 | 5228 ft | 152 kts | 92° |
| 2026-04-26 06:02 | 21.41823 | -158.29237 | 5422 ft | 147 kts | 125° |
| 2026-04-26 06:02 | 21.41160 | -158.28346 | 5374 ft | 158 kts | 140° |
| 2026-04-26 06:03 | 21.40332 | -158.27534 | 5335 ft | 165 kts | 135° |
| 2026-04-26 06:03 | 21.39498 | -158.26656 | 5286 ft | 170 kts | 136° |
| 2026-04-26 06:03 | 21.38745 | -158.25671 | 5227 ft | 174 kts | 115° |
| 2026-04-26 06:03 | 21.38342 | -158.24454 | 5270 ft | 169 kts | 108° |
| 2026-04-26 06:04 | 21.37969 | -158.23303 | 5493 ft | 157 kts | 111° |
| 2026-04-26 06:04 | 21.37563 | -158.22249 | 5725 ft | 149 kts | 113° |
| 2026-04-26 06:04 | 21.37161 | -158.21256 | 5953 ft | 142 kts | 113° |
| 2026-04-26 06:04 | 21.36772 | -158.20306 | 6182 ft | 136 kts | 114° |
| 2026-04-26 06:05 | 21.36396 | -158.19391 | 6409 ft | 132 kts | 114° |
| 2026-04-26 06:05 | 21.36033 | -158.18508 | 6634 ft | 127 kts | 114° |
| 2026-04-26 06:05 | 21.35682 | -158.17652 | 6836 ft | 126 kts | 113° |
| 2026-04-26 06:05 | 21.35319 | -158.16775 | 6957 ft | 131 kts | 114° |
| 2026-04-26 06:06 | 21.34939 | -158.15852 | 7007 ft | 141 kts | 114° |
| 2026-04-26 06:06 | 21.34526 | -158.14855 | 7011 ft | 151 kts | 114° |
| 2026-04-26 06:06 | 21.34088 | -158.13794 | 7013 ft | 159 kts | 114° |
| 2026-04-26 06:06 | 21.33633 | -158.12690 | 7012 ft | 164 kts | 114° |
| 2026-04-26 06:07 | 21.33167 | -158.11557 | 7001 ft | 168 kts | 114° |
| 2026-04-26 06:07 | 21.32693 | -158.10407 | 7006 ft | 170 kts | 114° |
| 2026-04-26 06:07 | 21.32214 | -158.09244 | 7012 ft | 171 kts | 114° |
| 2026-04-26 06:07 | 21.31733 | -158.08075 | 7003 ft | 172 kts | 114° |
| 2026-04-26 06:08 | 21.31249 | -158.06902 | 7007 ft | 172 kts | 114° |
| 2026-04-26 06:08 | 21.30763 | -158.05723 | 7011 ft | 173 kts | 114° |
| 2026-04-26 06:08 | 21.30277 | -158.04546 | 7000 ft | 173 kts | 114° |
| 2026-04-26 06:08 | 21.29790 | -158.03365 | 7008 ft | 173 kts | 114° |
| 2026-04-26 06:09 | 21.29303 | -158.02186 | 7010 ft | 173 kts | 114° |
| 2026-04-26 06:09 | 21.28815 | -158.01003 | 7003 ft | 173 kts | 114° |
| 2026-04-26 06:09 | 21.28335 | -157.99840 | 7000 ft | 168 kts | 114° |
| 2026-04-26 06:09 | 21.27867 | -157.98704 | 6990 ft | 165 kts | 114° |
| 2026-04-26 06:10 | 21.27404 | -157.97585 | 6992 ft | 163 kts | 114° |
| 2026-04-26 06:10 | 21.26948 | -157.96480 | 6989 ft | 161 kts | 114° |
| 2026-04-26 06:10 | 21.26495 | -157.95383 | 6992 ft | 160 kts | 114° |
| 2026-04-26 06:10 | 21.26044 | -157.94293 | 6991 ft | 160 kts | 114° |
| 2026-04-26 06:11 | 21.25594 | -157.93203 | 6987 ft | 159 kts | 114° |
| 2026-04-26 06:11 | 21.25145 | -157.92118 | 6992 ft | 159 kts | 114° |
| 2026-04-26 06:11 | 21.24696 | -157.91032 | 6994 ft | 159 kts | 114° |
| 2026-04-26 06:11 | 21.24248 | -157.89948 | 6993 ft | 159 kts | 114° |
| 2026-04-26 06:12 | 21.23799 | -157.88865 | 6992 ft | 159 kts | 114° |
| 2026-04-26 06:12 | 21.23345 | -157.87767 | 6989 ft | 159 kts | 114° |
| 2026-04-26 06:12 | 21.22902 | -157.86699 | 6991 ft | 159 kts | 114° |
| 2026-04-26 06:12 | 21.22448 | -157.85601 | 6993 ft | 159 kts | 114° |
| 2026-04-26 06:13 | 21.21999 | -157.84517 | 6986 ft | 159 kts | 114° |
| 2026-04-26 06:13 | 21.21558 | -157.83452 | 6992 ft | 159 kts | 114° |
| 2026-04-26 06:13 | 21.21109 | -157.82370 | 6993 ft | 159 kts | 114° |
| 2026-04-26 06:13 | 21.20662 | -157.81290 | 6993 ft | 159 kts | 114° |
| 2026-04-26 06:14 | 21.20213 | -157.80206 | 6992 ft | 159 kts | 114° |
| 2026-04-26 06:14 | 21.19762 | -157.79119 | 6992 ft | 159 kts | 114° |
| 2026-04-26 06:14 | 21.19314 | -157.78039 | 6992 ft | 159 kts | 114° |
| 2026-04-26 06:14 | 21.18862 | -157.76948 | 6993 ft | 159 kts | 114° |
| 2026-04-26 06:15 | 21.18413 | -157.75867 | 6993 ft | 159 kts | 114° |
| 2026-04-26 06:15 | 21.17962 | -157.74779 | 6989 ft | 159 kts | 114° |
| 2026-04-26 06:15 | 21.17513 | -157.73696 | 6993 ft | 159 kts | 114° |
| 2026-04-26 06:15 | 21.17062 | -157.72610 | 6993 ft | 159 kts | 114° |
| 2026-04-26 06:16 | 21.16763 | -157.71891 | 6993 ft | 160 kts | 114° |
| 2026-04-26 06:16 | 21.16161 | -157.70440 | 6993 ft | 160 kts | 114° |
| 2026-04-26 06:16 | 21.15860 | -157.69715 | 6993 ft | 160 kts | 114° |
| 2026-04-26 06:16 | 21.15262 | -157.68277 | 6987 ft | 160 kts | 114° |
| 2026-04-26 06:17 | 21.14811 | -157.67190 | 6989 ft | 160 kts | 114° |
| 2026-04-26 06:17 | 21.14360 | -157.66105 | 6993 ft | 160 kts | 114° |
| 2026-04-26 06:17 | 21.13907 | -157.65016 | 6991 ft | 160 kts | 114° |
| 2026-04-26 06:17 | 21.13602 | -157.64283 | 6993 ft | 160 kts | 114° |
| 2026-04-26 06:18 | 21.13155 | -157.63207 | 6990 ft | 160 kts | 114° |
| 2026-04-26 06:18 | 21.12702 | -157.62118 | 6993 ft | 160 kts | 114° |
| 2026-04-26 06:18 | 21.12250 | -157.61032 | 6991 ft | 160 kts | 114° |
| 2026-04-26 06:18 | 21.11795 | -157.59938 | 6993 ft | 160 kts | 114° |
| 2026-04-26 06:19 | 21.11342 | -157.58851 | 6987 ft | 160 kts | 114° |
| 2026-04-26 06:19 | 21.10890 | -157.57764 | 6993 ft | 160 kts | 114° |
| 2026-04-26 06:19 | 21.10407 | -157.56694 | 6992 ft | 159 kts | 121° |
| 2026-04-26 06:19 | 21.09822 | -157.55685 | 6995 ft | 159 kts | 121° |
| 2026-04-26 06:20 | 21.09248 | -157.54668 | 6992 ft | 160 kts | 121° |
| 2026-04-26 06:20 | 21.08674 | -157.53648 | 6995 ft | 160 kts | 121° |
| 2026-04-26 06:20 | 21.08101 | -157.52632 | 6995 ft | 160 kts | 121° |
| 2026-04-26 06:20 | 21.07526 | -157.51613 | 6991 ft | 160 kts | 121° |
| 2026-04-26 06:21 | 21.07002 | -157.50686 | 6992 ft | 160 kts | 121° |
| 2026-04-26 06:21 | 21.06508 | -157.49811 | 6995 ft | 160 kts | 121° |
| 2026-04-26 06:21 | 21.05908 | -157.48815 | 6992 ft | 159 kts | 127° |
| 2026-04-26 06:21 | 21.05305 | -157.47822 | 6990 ft | 159 kts | 123° |
| 2026-04-26 06:22 | 21.04746 | -157.46804 | 6994 ft | 159 kts | 118° |
| 2026-04-26 06:22 | 21.04226 | -157.45761 | 6993 ft | 159 kts | 119° |
| 2026-04-26 06:22 | 21.03659 | -157.44743 | 6992 ft | 159 kts | 121° |
| 2026-04-26 06:22 | 21.03080 | -157.43733 | 6994 ft | 159 kts | 121° |
| 2026-04-26 06:23 | 21.02502 | -157.42720 | 6994 ft | 159 kts | 121° |
| 2026-04-26 06:23 | 21.01926 | -157.41705 | 6990 ft | 160 kts | 121° |
| 2026-04-26 06:23 | 21.01350 | -157.40689 | 6994 ft | 160 kts | 121° |
| 2026-04-26 06:23 | 21.00774 | -157.39671 | 6995 ft | 160 kts | 121° |
| 2026-04-26 06:24 | 21.00199 | -157.38656 | 6995 ft | 160 kts | 121° |
| 2026-04-26 06:24 | 20.99624 | -157.37639 | 6995 ft | 160 kts | 121° |
| 2026-04-26 06:24 | 20.99047 | -157.36623 | 6994 ft | 160 kts | 121° |
| 2026-04-26 06:24 | 20.98472 | -157.35606 | 6994 ft | 160 kts | 121° |
| 2026-04-26 06:25 | 20.97895 | -157.34588 | 6994 ft | 160 kts | 121° |
| 2026-04-26 06:25 | 20.97320 | -157.33572 | 6993 ft | 160 kts | 121° |
| 2026-04-26 06:25 | 20.96744 | -157.32556 | 6994 ft | 160 kts | 121° |
| 2026-04-26 06:25 | 20.96166 | -157.31537 | 6994 ft | 160 kts | 121° |
| 2026-04-26 06:26 | 20.95590 | -157.30521 | 6989 ft | 160 kts | 121° |
| 2026-04-26 06:26 | 20.95013 | -157.29504 | 6991 ft | 160 kts | 121° |
| 2026-04-26 06:26 | 20.94435 | -157.28485 | 6991 ft | 160 kts | 121° |
| 2026-04-26 06:26 | 20.93858 | -157.27467 | 6994 ft | 160 kts | 121° |
| 2026-04-26 06:27 | 20.93282 | -157.26450 | 6992 ft | 160 kts | 121° |
| 2026-04-26 06:27 | 20.92703 | -157.25433 | 6993 ft | 160 kts | 121° |
| 2026-04-26 06:27 | 20.92127 | -157.24416 | 6993 ft | 160 kts | 121° |
| 2026-04-26 06:27 | 20.91541 | -157.23384 | 6990 ft | 160 kts | 121° |
| 2026-04-26 06:28 | 20.90971 | -157.22381 | 6992 ft | 160 kts | 121° |
| 2026-04-26 06:28 | 20.90386 | -157.21350 | 6988 ft | 160 kts | 121° |
| 2026-04-26 06:28 | 20.89808 | -157.20333 | 6991 ft | 160 kts | 121° |
| 2026-04-26 06:28 | 20.89230 | -157.19315 | 6993 ft | 160 kts | 121° |
| 2026-04-26 06:29 | 20.88652 | -157.18298 | 6989 ft | 160 kts | 121° |
| 2026-04-26 06:29 | 20.88074 | -157.17280 | 6993 ft | 160 kts | 121° |
| 2026-04-26 06:29 | 20.87494 | -157.16261 | 6991 ft | 160 kts | 121° |
| 2026-04-26 06:29 | 20.86923 | -157.15257 | 6989 ft | 160 kts | 121° |
| 2026-04-26 06:30 | 20.86338 | -157.14228 | 6992 ft | 160 kts | 121° |
| 2026-04-26 06:30 | 20.85761 | -157.13213 | 6992 ft | 160 kts | 121° |
| 2026-04-26 06:30 | 20.85183 | -157.12198 | 6989 ft | 160 kts | 121° |
| 2026-04-26 06:30 | 20.84607 | -157.11186 | 6993 ft | 160 kts | 121° |
| 2026-04-26 06:31 | 20.84030 | -157.10171 | 6993 ft | 160 kts | 121° |
| 2026-04-26 06:31 | 20.83452 | -157.09156 | 6990 ft | 160 kts | 121° |
| 2026-04-26 06:31 | 20.82876 | -157.08143 | 6994 ft | 160 kts | 121° |
| 2026-04-26 06:31 | 20.82298 | -157.07129 | 6992 ft | 160 kts | 121° |
| 2026-04-26 06:32 | 20.81720 | -157.06114 | 6988 ft | 160 kts | 121° |
| 2026-04-26 06:32 | 20.81143 | -157.05102 | 6993 ft | 160 kts | 121° |
| 2026-04-26 06:32 | 20.80562 | -157.04083 | 6985 ft | 160 kts | 121° |
| 2026-04-26 06:32 | 20.79985 | -157.03069 | 6989 ft | 160 kts | 121° |
| 2026-04-26 06:33 | 20.79407 | -157.02056 | 6993 ft | 160 kts | 121° |
| 2026-04-26 06:33 | 20.78829 | -157.01043 | 6987 ft | 160 kts | 121° |
| 2026-04-26 06:33 | 20.78251 | -157.00028 | 6990 ft | 160 kts | 121° |
| 2026-04-26 06:33 | 20.77673 | -156.99016 | 6993 ft | 160 kts | 121° |
| 2026-04-26 06:34 | 20.77095 | -156.98001 | 6993 ft | 160 kts | 121° |
| 2026-04-26 06:34 | 20.76514 | -156.96985 | 6988 ft | 160 kts | 122° |
| 2026-04-26 06:34 | 20.75849 | -156.96033 | 6992 ft | 160 kts | 128° |
| 2026-04-26 06:34 | 20.75175 | -156.95090 | 6996 ft | 160 kts | 127° |
| 2026-04-26 06:35 | 20.74502 | -156.94143 | 6994 ft | 160 kts | 127° |
| 2026-04-26 06:35 | 20.73830 | -156.93198 | 6993 ft | 160 kts | 127° |
| 2026-04-26 06:35 | 20.73157 | -156.92253 | 6993 ft | 160 kts | 127° |
| 2026-04-26 06:35 | 20.72484 | -156.91311 | 6994 ft | 160 kts | 127° |
| 2026-04-26 06:36 | 20.71813 | -156.90367 | 6991 ft | 160 kts | 127° |
| 2026-04-26 06:36 | 20.71140 | -156.89425 | 6993 ft | 160 kts | 127° |
| 2026-04-26 06:36 | 20.70467 | -156.88481 | 6995 ft | 160 kts | 127° |
| 2026-04-26 06:36 | 20.69793 | -156.87537 | 6992 ft | 160 kts | 127° |
| 2026-04-26 06:37 | 20.69120 | -156.86594 | 6994 ft | 160 kts | 127° |
| 2026-04-26 06:37 | 20.68448 | -156.85652 | 6995 ft | 160 kts | 127° |
| 2026-04-26 06:37 | 20.67774 | -156.84709 | 6994 ft | 160 kts | 127° |
| 2026-04-26 06:37 | 20.67102 | -156.83766 | 6995 ft | 160 kts | 127° |
| 2026-04-26 06:38 | 20.66429 | -156.82824 | 6989 ft | 160 kts | 127° |
| 2026-04-26 06:38 | 20.65754 | -156.81879 | 6989 ft | 160 kts | 127° |
| 2026-04-26 06:38 | 20.65082 | -156.80938 | 6993 ft | 160 kts | 127° |
| 2026-04-26 06:38 | 20.64408 | -156.79994 | 6993 ft | 160 kts | 127° |
| 2026-04-26 06:39 | 20.63734 | -156.79051 | 6993 ft | 160 kts | 127° |
| 2026-04-26 06:39 | 20.63060 | -156.78109 | 6994 ft | 160 kts | 127° |
| 2026-04-26 06:39 | 20.62386 | -156.77165 | 6990 ft | 160 kts | 127° |
| 2026-04-26 06:39 | 20.61712 | -156.76223 | 6990 ft | 160 kts | 127° |
| 2026-04-26 06:40 | 20.61037 | -156.75278 | 6992 ft | 160 kts | 127° |
| 2026-04-26 06:40 | 20.60364 | -156.74338 | 6992 ft | 160 kts | 127° |
| 2026-04-26 06:40 | 20.59690 | -156.73395 | 6993 ft | 160 kts | 127° |
| 2026-04-26 06:40 | 20.59016 | -156.72453 | 6990 ft | 160 kts | 127° |
| 2026-04-26 06:41 | 20.58342 | -156.71511 | 6990 ft | 160 kts | 127° |
| 2026-04-26 06:41 | 20.57668 | -156.70569 | 6992 ft | 160 kts | 127° |
| 2026-04-26 06:41 | 20.56994 | -156.69628 | 6993 ft | 160 kts | 127° |
| 2026-04-26 06:41 | 20.56320 | -156.68684 | 6990 ft | 160 kts | 127° |
| 2026-04-26 06:42 | 20.55644 | -156.67742 | 6991 ft | 160 kts | 127° |
| 2026-04-26 06:42 | 20.54970 | -156.66799 | 6993 ft | 160 kts | 127° |
| 2026-04-26 06:42 | 20.54295 | -156.65858 | 6989 ft | 160 kts | 127° |
| 2026-04-26 06:42 | 20.53620 | -156.64915 | 6990 ft | 160 kts | 127° |
| 2026-04-26 06:43 | 20.52943 | -156.63970 | 6988 ft | 160 kts | 127° |
| 2026-04-26 06:43 | 20.52267 | -156.63027 | 6987 ft | 160 kts | 127° |
| 2026-04-26 06:43 | 20.51591 | -156.62083 | 6992 ft | 160 kts | 127° |
| 2026-04-26 06:43 | 20.50906 | -156.61128 | 6991 ft | 160 kts | 127° |
| 2026-04-26 06:44 | 20.50230 | -156.60185 | 6994 ft | 160 kts | 127° |
| 2026-04-26 06:44 | 20.49555 | -156.59243 | 6990 ft | 160 kts | 127° |
| 2026-04-26 06:44 | 20.48879 | -156.58300 | 6993 ft | 160 kts | 127° |
| 2026-04-26 06:44 | 20.48203 | -156.57358 | 6989 ft | 160 kts | 127° |
| 2026-04-26 06:45 | 20.47531 | -156.56422 | 6990 ft | 160 kts | 127° |
| 2026-04-26 06:45 | 20.46862 | -156.55489 | 6994 ft | 160 kts | 127° |
| 2026-04-26 06:45 | 20.46184 | -156.54545 | 6992 ft | 160 kts | 127° |
| 2026-04-26 06:45 | 20.45507 | -156.53600 | 6995 ft | 161 kts | 127° |
| 2026-04-26 06:46 | 20.44821 | -156.52646 | 6993 ft | 161 kts | 127° |
| 2026-04-26 06:46 | 20.44149 | -156.51710 | 6995 ft | 161 kts | 127° |
| 2026-04-26 06:46 | 20.43472 | -156.50767 | 6994 ft | 161 kts | 127° |
| 2026-04-26 06:46 | 20.42792 | -156.49821 | 6990 ft | 160 kts | 127° |
| 2026-04-26 06:47 | 20.42113 | -156.48875 | 6995 ft | 160 kts | 127° |
| 2026-04-26 06:47 | 20.41436 | -156.47933 | 6991 ft | 160 kts | 127° |
| 2026-04-26 06:47 | 20.40758 | -156.46988 | 6994 ft | 160 kts | 127° |
| 2026-04-26 06:47 | 20.40077 | -156.46042 | 6992 ft | 160 kts | 127° |
| 2026-04-26 06:48 | 20.39400 | -156.45100 | 6991 ft | 160 kts | 127° |
| 2026-04-26 06:48 | 20.38722 | -156.44158 | 6990 ft | 160 kts | 127° |
| 2026-04-26 06:48 | 20.38046 | -156.43216 | 6991 ft | 160 kts | 128° |
| 2026-04-26 06:48 | 20.37364 | -156.42268 | 6989 ft | 160 kts | 127° |
| 2026-04-26 06:49 | 20.36686 | -156.41327 | 6995 ft | 160 kts | 127° |
| 2026-04-26 06:49 | 20.36011 | -156.40387 | 6990 ft | 160 kts | 127° |
| 2026-04-26 06:49 | 20.35335 | -156.39448 | 6993 ft | 160 kts | 127° |
| 2026-04-26 06:49 | 20.34658 | -156.38508 | 6993 ft | 160 kts | 128° |
| 2026-04-26 06:50 | 20.33983 | -156.37569 | 6991 ft | 160 kts | 127° |
| 2026-04-26 06:50 | 20.33308 | -156.36632 | 6993 ft | 160 kts | 127° |
| 2026-04-26 06:50 | 20.32631 | -156.35692 | 6991 ft | 160 kts | 128° |
| 2026-04-26 06:50 | 20.31956 | -156.34754 | 6991 ft | 160 kts | 127° |
| 2026-04-26 06:51 | 20.31279 | -156.33815 | 6993 ft | 160 kts | 128° |
| 2026-04-26 06:51 | 20.29927 | -156.31938 | 6991 ft | 160 kts | 127° |
| 2026-04-26 06:51 | 20.29251 | -156.31000 | 6993 ft | 160 kts | 128° |
| 2026-04-26 06:52 | 20.28575 | -156.30061 | 6993 ft | 160 kts | 127° |
| 2026-04-26 06:52 | 20.27898 | -156.29122 | 6991 ft | 160 kts | 128° |
| 2026-04-26 06:52 | 20.27222 | -156.28184 | 6991 ft | 160 kts | 127° |
| 2026-04-26 06:52 | 20.26544 | -156.27244 | 6993 ft | 160 kts | 127° |
| 2026-04-26 06:53 | 20.25868 | -156.26306 | 6991 ft | 160 kts | 128° |
| 2026-04-26 06:53 | 20.25191 | -156.25368 | 6991 ft | 160 kts | 127° |
| 2026-04-26 06:53 | 20.24514 | -156.24431 | 6990 ft | 160 kts | 128° |
| 2026-04-26 06:53 | 20.23838 | -156.23493 | 6987 ft | 160 kts | 127° |
| 2026-04-26 06:54 | 20.23161 | -156.22555 | 6993 ft | 160 kts | 128° |
| 2026-04-26 06:54 | 20.22485 | -156.21618 | 6991 ft | 160 kts | 128° |
| 2026-04-26 06:54 | 20.21807 | -156.20680 | 6992 ft | 160 kts | 127° |
| 2026-04-26 06:54 | 20.21131 | -156.19743 | 6991 ft | 160 kts | 128° |
| 2026-04-26 06:55 | 20.20454 | -156.18804 | 6991 ft | 160 kts | 127° |
| 2026-04-26 06:55 | 20.19776 | -156.17867 | 6991 ft | 160 kts | 128° |
| 2026-04-26 06:55 | 20.19319 | -156.17233 | 6991 ft | 160 kts | 127° |
| 2026-04-26 06:55 | 20.18421 | -156.15990 | 6993 ft | 160 kts | 128° |
| 2026-04-26 06:56 | 20.17963 | -156.15357 | 6991 ft | 160 kts | 128° |
| 2026-04-26 06:56 | 20.17285 | -156.14419 | 6991 ft | 160 kts | 128° |
| 2026-04-26 06:56 | 20.16608 | -156.13481 | 6991 ft | 160 kts | 128° |
| 2026-04-26 06:56 | 20.15930 | -156.12544 | 6991 ft | 160 kts | 128° |
| 2026-04-26 06:57 | 20.15268 | -156.11631 | 6991 ft | 149 kts | 128° |
| 2026-04-26 06:57 | 20.14657 | -156.10785 | 6984 ft | 140 kts | 127° |
| 2026-04-26 06:57 | 20.14049 | -156.09944 | 6780 ft | 147 kts | 128° |
| 2026-04-26 06:57 | 20.13419 | -156.09073 | 6585 ft | 150 kts | 128° |
| 2026-04-26 06:58 | 20.12782 | -156.08193 | 6359 ft | 154 kts | 128° |
| 2026-04-26 06:58 | 20.12116 | -156.07271 | 6116 ft | 156 kts | 128° |
| 2026-04-26 06:58 | 20.11450 | -156.06351 | 5875 ft | 158 kts | 128° |
| 2026-04-26 06:58 | 20.10779 | -156.05424 | 5631 ft | 158 kts | 128° |
| 2026-04-26 06:59 | 20.10107 | -156.04495 | 5383 ft | 159 kts | 128° |
| 2026-04-26 06:59 | 20.09394 | -156.03598 | 5138 ft | 159 kts | 129° |
| 2026-04-26 06:59 | 20.08734 | -156.02654 | 4892 ft | 159 kts | 126° |
| 2026-04-26 06:59 | 20.07888 | -156.01936 | 4628 ft | 158 kts | 162° |
| 2026-04-26 07:00 | 20.06836 | -156.01671 | 4436 ft | 151 kts | 168° |
| 2026-04-26 07:00 | 20.05818 | -156.01532 | 4221 ft | 145 kts | 181° |
| 2026-04-26 07:00 | 20.04818 | -156.01558 | 4009 ft | 142 kts | 182° |
| 2026-04-26 07:00 | 20.03834 | -156.01582 | 3803 ft | 141 kts | 182° |
| 2026-04-26 07:01 | 20.02905 | -156.01821 | 3580 ft | 139 kts | 215° |
| 2026-04-26 07:01 | 20.02358 | -156.02635 | 3381 ft | 136 kts | 244° |
| 2026-04-26 07:01 | 20.01654 | -156.03252 | 3176 ft | 137 kts | 191° |
| 2026-04-26 07:01 | 20.00778 | -156.02972 | 3003 ft | 135 kts | 133° |
| 2026-04-26 07:02 | 20.00145 | -156.02315 | 2986 ft | 124 kts | 161° |
| 2026-04-26 07:02 | 19.99333 | -156.02325 | 2988 ft | 115 kts | 184° |
| 2026-04-26 07:02 | 19.98530 | -156.02362 | 2992 ft | 117 kts | 184° |
| 2026-04-26 07:02 | 19.97676 | -156.02425 | 3016 ft | 130 kts | 185° |
| 2026-04-26 07:03 | 19.96731 | -156.02517 | 3016 ft | 142 kts | 185° |
| 2026-04-26 07:03 | 19.95719 | -156.02604 | 3014 ft | 149 kts | 185° |
| 2026-04-26 07:03 | 19.94671 | -156.02704 | 3010 ft | 153 kts | 185° |
| 2026-04-26 07:03 | 19.93625 | -156.02793 | 3007 ft | 148 kts | 185° |
| 2026-04-26 07:04 | 19.92585 | -156.02888 | 3011 ft | 152 kts | 185° |
| 2026-04-26 07:04 | 19.91519 | -156.02983 | 3007 ft | 155 kts | 186° |
| 2026-04-26 07:04 | 19.90433 | -156.03078 | 2974 ft | 159 kts | 185° |
| 2026-04-26 07:04 | 19.89297 | -156.03184 | 2783 ft | 169 kts | 186° |
| 2026-04-26 07:05 | 19.88103 | -156.03287 | 2557 ft | 175 kts | 185° |
| 2026-04-26 07:05 | 19.86880 | -156.03400 | 2321 ft | 178 kts | 186° |
| 2026-04-26 07:05 | 19.85682 | -156.03505 | 2079 ft | 160 kts | 185° |
| 2026-04-26 07:05 | 19.84654 | -156.03601 | 1872 ft | 138 kts | 185° |
| 2026-04-26 07:06 | 19.83746 | -156.03679 | 1694 ft | 125 kts | 185° |
| 2026-04-26 07:06 | 19.82913 | -156.03754 | 1530 ft | 116 kts | 186° |
| 2026-04-26 07:06 | 19.82148 | -156.03822 | 1403 ft | 105 kts | 185° |
| 2026-04-26 07:06 | 19.81449 | -156.03886 | 1263 ft | 97 kts | 186° |
| 2026-04-26 07:07 | 19.80798 | -156.03941 | 1137 ft | 91 kts | 186° |
| 2026-04-26 07:07 | 19.80169 | -156.03998 | 1025 ft | 93 kts | 184° |
| 2026-04-26 07:07 | 19.79515 | -156.04059 | 931 ft | 92 kts | 187° |
| 2026-04-26 07:07 | 19.78874 | -156.04134 | 768 ft | 94 kts | 186° |
| 2026-04-26 07:08 | 19.78223 | -156.04177 | 622 ft | 92 kts | 184° |
| 2026-04-26 07:08 | 19.77600 | -156.04243 | 521 ft | 88 kts | 186° |
| 2026-04-26 07:08 | 19.76993 | -156.04299 | 404 ft | 88 kts | 183° |
| 2026-04-26 07:08 | 19.76387 | -156.04340 | 297 ft | 87 kts | 185° |
| 2026-04-26 07:09 | 19.75772 | -156.04377 | 160 ft | 87 kts | 187° |
| 2026-04-26 07:09 | 19.75179 | -156.04450 | 80 ft | 84 kts | 184° |
| 2026-04-26 07:09 | 19.74632 | -156.04492 | 54 ft | 71 kts | 186° |
| 2026-04-26 07:09 | 19.74249 | -156.04537 | 51 ft | 34 kts | 183° |
| 2026-04-26 07:10 | 19.74137 | -156.04459 | 50 ft | 10 kts | 101° |
| 2026-04-26 07:11 | 19.74123 | -156.04325 | 50 ft | 0 kts | 97° |
| 2026-04-26 07:11 | 19.74103 | -156.04300 | 49 ft | 13 kts | 157° |
| 2026-04-26 07:12 | 19.73950 | -156.04305 | 49 ft | 27 kts | 185° |
| 2026-04-26 07:12 | 19.73814 | -156.04317 | 49 ft | 14 kts | 185° |
| 2026-04-26 07:12 | 19.73691 | -156.04327 | 49 ft | 22 kts | 184° |
| 2026-04-26 07:12 | 19.73551 | -156.04343 | 48 ft | 16 kts | 177° |
| 2026-04-26 07:13 | 19.73412 | -156.04350 | 48 ft | 22 kts | 189° |
| 2026-04-26 07:13 | 19.73295 | -156.04365 | 48 ft | 17 kts | 184° |
| 2026-04-26 07:13 | 19.73164 | -156.04373 | 47 ft | 15 kts | 185° |
| 2026-04-26 07:13 | 19.73059 | -156.04383 | 47 ft | 19 kts | 184° |
| 2026-04-26 07:14 | 19.72901 | -156.04397 | 47 ft | 26 kts | 188° |
| 2026-04-26 07:14 | 19.72810 | -156.04365 | 46 ft | 12 kts | 98° |
| 2026-04-26 07:14 | 19.72804 | -156.04304 | 46 ft | 8 kts | 95° |
| 2026-04-26 07:14 | 19.72817 | -156.04263 | 46 ft | 5 kts | 195° |
| 2026-04-26 07:15 | 19.72815 | -156.04265 | 46 ft | 0 kts | 229° |